Meteorología y climatología de Navarra
Datos de la estación - Meteo Navarra

Estación de Tudela (Montes del Cierzo) GN

Altitud 314 m.


Datos desde el 26/03/2020 hasta el 27/03/2020 en horario solar
Los datos son PROVISIONALES

Anterior Página 1 de 1 Siguiente Descargar: Formato para Excel 2000 o superior   Formato csv   Formato para OpenOffice Calc
Fecha Temperatura Humedad relativa Radiación global Insolación Precipitación Vel. viento 10 m Vel. viento 10 m Dir. viento 10 m
ºC % W/m² s l/m² m/s km/h º
26/03/2020 0:00 3.2 91 0.0 0 0.0 2.4 8.5 319
26/03/2020 0:10 3.0 89 0.0 0 0.0 2.1 7.6 305
26/03/2020 0:20 2.7 89 0.0 0 0.0 2.4 8.5 315
26/03/2020 0:30 2.9 86 0.0 0 0.0 2.7 9.7 307
26/03/2020 0:40 2.8 86 0.0 0 0.0 2.6 9.4 301
26/03/2020 0:50 3.1 85 0.0 0 0.0 2.2 8.0 309
26/03/2020 1:00 3.2 84 0.0 0 0.0 2.3 8.1 325
26/03/2020 1:10 3.2 85 0.0 0 0.0 2.6 9.3 333
26/03/2020 1:20 3.3 85 0.0 0 0.0 2.4 8.8 310
26/03/2020 1:30 3.7 84 0.0 0 0.0 2.2 8.0 295
26/03/2020 1:40 4.0 84 0.0 0 0.0 2.0 7.3 293
26/03/2020 1:50 4.3 84 0.0 0 0.0 1.4 5.1 277
26/03/2020 2:00 4.5 84 0.0 0 0.0 0.9 3.1 256
26/03/2020 2:10 4.6 84 0.0 0 0.0 1.4 5.1 261
26/03/2020 2:20 4.6 83 0.0 0 0.0 1.1 3.8 249
26/03/2020 2:30 4.4 84 0.0 0 0.0 1.1 3.8 279
26/03/2020 2:40 4.2 84 0.0 0 0.0 1.8 6.6 271
26/03/2020 2:50 4.2 84 0.0 0 0.0 1.9 6.9 289
26/03/2020 3:00 4.8 81 0.0 0 0.0 2.7 9.8 311
26/03/2020 3:10 5.5 77 0.0 0 0.0 3.0 10.7 318
26/03/2020 3:20 6.1 75 0.0 0 0.0 3.1 11.0 321
26/03/2020 3:30 6.4 73 0.0 0 0.0 3.8 13.6 316
26/03/2020 3:40 6.7 71 0.0 0 0.0 3.9 14.1 312
26/03/2020 3:50 6.8 71 0.0 0 0.0 3.5 12.6 314
26/03/2020 4:00 6.7 71 0.0 0 0.0 3.3 12.0 316
26/03/2020 4:10 6.4 72 0.0 0 0.0 3.6 12.8 317
26/03/2020 4:20 6.3 73 0.0 0 0.0 3.6 13.1 319
26/03/2020 4:30 6.1 74 0.0 0 0.0 3.2 11.4 322
26/03/2020 4:40 6.1 74 0.0 0 0.0 3.1 11.1 318
26/03/2020 4:50 6.3 74 0.0 0 0.0 3.5 12.4 319
26/03/2020 5:00 6.6 73 0.0 0 0.0 3.5 12.5 319
26/03/2020 5:10 6.7 73 0.0 0 0.0 4.5 16.1 315
26/03/2020 5:20 7.1 72 0.0 0 0.0 4.4 15.9 316
26/03/2020 5:30 7.3 71 0.0 0 0.0 5.1 18.5 309
26/03/2020 5:40 7.4 70 0.0 0 0.0 5.6 20.2 308
26/03/2020 5:50 7.5 70 0.0 0 0.0 5.1 18.3 310
26/03/2020 6:00 7.5 71 0.0 0 0.0 4.6 16.5 312
26/03/2020 6:10 7.4 72 0.0 0 0.0 4.2 15.3 313
26/03/2020 6:20 7.4 72 0.0 0 0.0 3.9 14.0 318
26/03/2020 6:30 7.4 71 0.0 0 0.0 4.2 15.0 321
26/03/2020 6:40 7.5 70 0.0 0 0.0 4.3 15.5 324
26/03/2020 6:50 7.6 69 2.0 0 0.0 4.7 16.9 320
26/03/2020 7:00 7.8 68 61.7 96 0.0 5.1 18.4 320
26/03/2020 7:10 8.1 67 64.4 46 0.0 5.5 19.9 319
26/03/2020 7:20 7.9 68 32.7 0 0.0 5.8 20.9 314
26/03/2020 7:30 7.8 69 25.0 0 0.0 5.3 19.0 316
26/03/2020 7:40 8.0 68 117.2 102 0.0 5.0 18.1 318
26/03/2020 7:50 8.3 66 101.5 0 0.0 5.6 20.3 315
26/03/2020 8:00 8.5 65 147.9 12 0.0 6.0 21.7 312
26/03/2020 8:10 8.7 64 170.7 6 0.0 5.7 20.4 314
26/03/2020 8:20 9.1 62 201.3 196 0.0 6.6 23.6 311
26/03/2020 8:30 8.8 63 93.0 0 0.0 6.5 23.5 311
26/03/2020 8:40 8.6 64 93.8 0 0.0 6.1 22.0 315
26/03/2020 8:50 8.6 63 123.5 0 0.0 6.8 24.3 310
26/03/2020 9:00 8.7 63 190.9 16 0.0 6.5 23.4 317
26/03/2020 9:10 9.0 62 144.5 0 0.0 5.9 21.3 318
26/03/2020 9:20 9.1 61 145.1 6 0.0 6.0 21.6 317
26/03/2020 9:30 8.9 61 92.2 0 0.0 6.5 23.4 312
26/03/2020 9:40 9.0 61 164.0 26 0.0 7.0 25.1 315
26/03/2020 9:50 9.3 60 155.8 20 0.0 6.7 24.0 313
26/03/2020 10:00 8.9 62 83.5 0 0.0 4.7 17.0 327
26/03/2020 10:10 9.0 62 192.4 28 0.0 4.5 16.2 336
26/03/2020 10:20 10.4 58 731.6 504 0.0 6.1 21.9 347
26/03/2020 10:30 11.2 49 390.1 174 0.0 6.9 24.7 347
26/03/2020 10:40 10.5 51 239.2 10 0.0 6.8 24.4 340
26/03/2020 10:50 10.1 51 278.6 74 0.0 6.8 24.4 339
26/03/2020 11:00 11.0 46 606.7 332 0.0 8.7 31.4 1
26/03/2020 11:10 11.2 42 645.0 376 0.0 10.5 37.8 8
26/03/2020 11:20 11.5 40 799.2 470 0.0 9.5 34.1 354
26/03/2020 11:30 12.0 41 605.4 298 0.0 7.9 28.4 353
26/03/2020 11:40 11.3 44 651.6 378 0.0 6.7 24.1 336
26/03/2020 11:50 11.5 43 575.9 318 0.0 7.9 28.4 344
26/03/2020 12:00 12.0 40 828.0 580 0.0 6.8 24.4 332
26/03/2020 12:10 12.2 41 861.0 600 0.0 8.4 30.2 348
26/03/2020 12:20 12.3 41 876.0 600 0.0 7.7 27.8 343
26/03/2020 12:30 12.6 40 882.0 600 0.0 7.7 27.8 347
26/03/2020 12:40 12.6 39 884.0 600 0.0 7.5 26.9 337
26/03/2020 12:50 12.7 38 858.0 600 0.0 7.8 28.0 333
26/03/2020 13:00 12.5 38 843.0 600 0.0 8.0 28.8 333
26/03/2020 13:10 12.6 37 811.0 596 0.0 8.3 30.0 352
26/03/2020 13:20 12.7 39 816.0 600 0.0 7.6 27.4 348
26/03/2020 13:30 12.8 37 804.0 600 0.0 7.2 25.8 337
26/03/2020 13:40 12.8 36 830.0 600 0.0 7.4 26.5 343
26/03/2020 13:50 12.6 36 781.7 600 0.0 7.5 26.9 348
26/03/2020 14:00 12.9 36 778.4 600 0.0 6.7 24.3 337
26/03/2020 14:10 13.0 36 739.8 600 0.0 6.5 23.3 338
26/03/2020 14:20 13.1 35 709.7 600 0.0 6.4 23.1 335
26/03/2020 14:30 12.8 35 694.0 600 0.0 6.8 24.5 338
26/03/2020 14:40 12.9 34 671.0 600 0.0 6.8 24.6 353
26/03/2020 14:50 12.8 34 646.7 600 0.0 7.1 25.6 357
26/03/2020 15:00 12.6 34 618.8 600 0.0 6.7 24.2 353
26/03/2020 15:10 12.7 35 589.5 600 0.0 7.4 26.5 354
26/03/2020 15:20 12.5 34 557.0 600 0.0 7.3 26.4 1
26/03/2020 15:30 12.4 34 524.2 600 0.0 7.6 27.5 349
26/03/2020 15:40 12.4 34 498.4 600 0.0 7.0 25.3 345
26/03/2020 15:50 12.3 35 467.8 600 0.0 7.3 26.3 0
26/03/2020 16:00 12.2 34 435.2 600 0.0 7.3 26.1 1
26/03/2020 16:10 12.1 33 394.8 600 0.0 7.2 26.1 352
26/03/2020 16:20 12.0 33 357.1 600 0.0 6.8 24.5 350
26/03/2020 16:30 11.7 34 325.2 600 0.0 6.5 23.4 359
26/03/2020 16:40 11.3 35 294.7 600 0.0 6.8 24.5 7
26/03/2020 16:50 11.4 34 256.0 600 0.0 6.2 22.2 358
26/03/2020 17:00 11.1 34 222.1 600 0.0 5.9 21.2 355
26/03/2020 17:10 10.6 34 185.6 600 0.0 6.3 22.8 354
26/03/2020 17:20 10.1 34 149.0 564 0.0 6.9 24.8 1
26/03/2020 17:30 9.7 35 46.9 0 0.0 7.1 25.4 2
26/03/2020 17:40 9.4 35 37.8 0 0.0 6.8 24.6 1
26/03/2020 17:50 9.0 36 31.0 0 0.0 6.5 23.4 3
26/03/2020 18:00 8.7 38 23.5 0 0.0 6.0 21.5 2
26/03/2020 18:10 8.4 40 10.3 0 0.0 5.0 17.9 356
26/03/2020 18:20 8.0 43 0.0 0 0.0 4.9 17.5 357
26/03/2020 18:30 7.6 45 0.0 0 0.0 4.7 16.8 353
26/03/2020 18:40 7.1 47 0.0 0 0.0 4.0 14.4 349
26/03/2020 18:50 6.8 49 0.0 0 0.0 3.8 13.6 344
26/03/2020 19:00 6.5 49 0.0 0 0.0 4.0 14.4 341
26/03/2020 19:10 6.4 50 0.0 0 0.0 3.7 13.3 344
26/03/2020 19:20 6.2 51 0.0 0 0.0 3.5 12.6 337
26/03/2020 19:30 6.0 52 0.0 0 0.0 3.3 11.7 341
26/03/2020 19:40 5.7 53 0.0 0 0.0 2.7 9.8 337
26/03/2020 19:50 5.4 55 0.0 0 0.0 2.8 10.2 342
26/03/2020 20:00 5.0 57 0.0 0 0.0 2.0 7.1 329
26/03/2020 20:10 4.6 59 0.0 0 0.0 0.8 2.7 295
26/03/2020 20:20 3.8 64 0.0 0 0.0 1.5 5.4 310
26/03/2020 20:30 3.9 63 0.0 0 0.0 3.1 11.1 310
26/03/2020 20:40 4.1 62 0.0 0 0.0 1.6 5.8 311
26/03/2020 20:50 3.6 65 0.0 0 0.0 3.0 10.7 307
26/03/2020 21:00 4.2 62 0.0 0 0.0 3.3 11.7 321
26/03/2020 21:10 4.0 63 0.0 0 0.0 2.2 8.0 328
26/03/2020 21:20 3.8 64 0.0 0 0.0 1.8 6.6 330
26/03/2020 21:30 3.7 65 0.0 0 0.0 2.3 8.4 330
26/03/2020 21:40 3.7 66 0.0 0 0.0 2.4 8.6 318
26/03/2020 21:50 3.6 66 0.0 0 0.0 2.6 9.5 325
26/03/2020 22:00 3.6 67 0.0 0 0.0 2.3 8.1 323
26/03/2020 22:10 3.5 67 0.0 0 0.0 2.3 8.1 323
26/03/2020 22:20 3.5 68 0.0 0 0.0 2.7 9.6 313
26/03/2020 22:30 3.1 70 0.0 0 0.0 2.8 10.0 304
26/03/2020 22:40 3.0 70 0.0 0 0.0 2.9 10.3 308
26/03/2020 22:50 3.1 70 0.0 0 0.0 2.8 9.9 311
26/03/2020 23:00 3.1 70 0.0 0 0.0 2.5 8.9 304
26/03/2020 23:10 3.1 71 0.0 0 0.0 2.8 10.2 306
26/03/2020 23:20 2.9 72 0.0 0 0.0 3.0 10.9 275
26/03/2020 23:30 2.1 76 0.0 0 0.0 3.5 12.5 277
26/03/2020 23:40 2.3 77 0.0 0 0.0 3.5 12.7 281
26/03/2020 23:50 2.3 77 0.0 0 0.0 3.2 11.7 290
Anterior Página 1 de 1 Siguiente

NOTA: Tipo de datos según el color:
   - Valores diarios o 10 minutos correctos
   - Valores diarios calculados a partir de un número de datos 10 minutos menor que 144 y mayor que 120, o de un número de datos semihorarios menor que 48 y mayor que 40 (caso de las estaciones de INTIA y del Ministerio)
   - Valores diez minutos estimados


Contacto        Enlaces        Aviso legal